Time;durP1;ratioP1;P1;durP2;ratioP2;P2;SDS_P1;SDS_P2;PMS_P1;PMS_P2;Temp;Humidity;BMP_temperature;BMP_pressure;BME280_temperature;BME280_humidity;BME280_pressure;Samples;Min_cycle;Max_cycle;Signal;HPM_P1;HPM_P2
2022/02/16 00:02:21;;;;;;;68.68;8.52;;;5.20;99.90;;;;;;5053142;28;20075;-70
2022/02/16 00:04:47;;;;;;;84.80;9.00;;;5.30;99.90;;;;;;5054103;28;20370;-70
2022/02/16 00:07:13;;;;;;;73.38;9.50;;;5.30;99.90;;;;;;5053954;28;20533;-70
2022/02/16 00:09:38;;;;;;;84.20;9.73;;;5.20;99.90;;;;;;5054033;28;20067;-70
2022/02/16 00:12:04;;;;;;;105.00;10.30;;;5.20;99.90;;;;;;5053846;28;20104;-70
2022/02/16 00:14:30;;;;;;;82.50;9.27;;;5.20;99.90;;;;;;5053903;28;20021;-70
2022/02/16 00:16:56;;;;;;;73.47;9.40;;;5.20;99.90;;;;;;5053989;28;20025;-70
2022/02/16 00:19:22;;;;;;;75.80;8.85;;;5.20;99.90;;;;;;5035940;28;20037;-70
2022/02/16 00:21:48;;;;;;;90.88;8.70;;;5.20;99.90;;;;;;5054140;28;20067;-70
2022/02/16 00:24:13;;;;;;;79.18;9.68;;;5.20;99.90;;;;;;5054000;28;20045;-70
2022/02/16 00:26:39;;;;;;;83.40;9.98;;;5.20;99.90;;;;;;5053698;28;20020;-70
2022/02/16 00:29:05;;;;;;;90.78;8.90;;;5.20;99.90;;;;;;5053770;28;20029;-70
2022/02/16 00:31:31;;;;;;;74.93;9.55;;;5.20;99.90;;;;;;5053738;28;20029;-70
2022/02/16 00:33:56;;;;;;;60.92;7.82;;;5.30;99.90;;;;;;5053695;28;20048;-70
2022/02/16 00:36:22;;;;;;;78.20;8.50;;;5.20;99.90;;;;;;5053540;28;20041;-70
2022/02/16 00:38:48;;;;;;;78.22;9.50;;;5.20;99.90;;;;;;5053827;28;20025;-70
2022/02/16 00:41:14;;;;;;;66.32;10.52;;;5.20;99.90;;;;;;5053310;28;20108;-70
2022/02/16 00:43:40;;;;;;;74.55;9.00;;;5.20;99.90;;;;;;5053452;28;20021;-70
2022/02/16 00:46:05;;;;;;;92.43;8.93;;;5.10;99.90;;;;;;5053846;28;20376;-70
2022/02/16 00:48:31;;;;;;;70.00;8.52;;;5.10;99.90;;;;;;5053392;28;20032;-70
2022/02/16 00:50:56;;;;;;;97.40;11.10;;;5.10;99.90;;;;;;5053518;28;20037;-70
2022/02/16 00:53:22;;;;;;;66.85;8.90;;;5.10;99.90;;;;;;5053642;28;20458;-70
2022/02/16 00:55:48;;;;;;;73.55;8.63;;;5.10;99.90;;;;;;5053380;28;20053;-70
2022/02/16 00:58:14;;;;;;;74.90;10.85;;;5.20;99.90;;;;;;5053360;28;20107;-70
2022/02/16 01:00:39;;;;;;;72.65;9.57;;;5.20;99.90;;;;;;5053205;28;20481;-70
2022/02/16 01:03:05;;;;;;;73.20;8.38;;;5.10;99.90;;;;;;5053569;28;20025;-70
2022/02/16 01:05:31;;;;;;;53.30;7.53;;;5.10;99.90;;;;;;5053646;28;20462;-70
2022/02/16 01:07:57;;;;;;;78.80;9.68;;;5.10;99.90;;;;;;5053271;28;20502;-70
2022/02/16 01:10:23;;;;;;;97.90;9.25;;;5.10;99.90;;;;;;5053227;28;20021;-70
2022/02/16 01:12:49;;;;;;;81.10;7.45;;;5.10;99.90;;;;;;5054182;28;20025;-70
2022/02/16 01:15:15;;;;;;;84.30;8.20;;;5.00;99.90;;;;;;5057211;28;20393;-70
2022/02/16 01:17:41;;;;;;;81.13;8.18;;;5.00;99.90;;;;;;5057293;28;20447;-70
2022/02/16 01:20:08;;;;;;;76.13;9.57;;;5.00;99.90;;;;;;5057538;28;20029;-70
2022/02/16 01:22:33;;;;;;;87.95;8.98;;;4.90;99.90;;;;;;5056899;28;20087;-70
2022/02/16 01:24:59;;;;;;;87.10;8.23;;;4.90;99.90;;;;;;5057218;28;20025;-70
2022/02/16 01:27:25;;;;;;;84.57;9.27;;;4.90;99.90;;;;;;5057009;28;20021;-70
2022/02/16 01:29:50;;;;;;;77.65;9.00;;;4.90;99.90;;;;;;5057199;28;20477;-70
2022/02/16 01:32:16;;;;;;;96.03;9.05;;;4.90;99.90;;;;;;5056882;28;20033;-70
2022/02/16 01:34:42;;;;;;;87.70;9.32;;;4.80;99.90;;;;;;5056903;28;20096;-70
2022/02/16 01:37:08;;;;;;;80.97;9.20;;;4.80;99.90;;;;;;5056808;28;20568;-70
2022/02/16 01:39:34;;;;;;;88.60;9.93;;;4.70;99.90;;;;;;5057019;28;20108;-70
2022/02/16 01:42:00;;;;;;;85.00;7.88;;;4.70;99.90;;;;;;5056652;28;20063;-70
2022/02/16 01:44:26;;;;;;;83.90;9.07;;;4.80;99.90;;;;;;5056643;28;20032;-70
2022/02/16 01:46:54;;;;;;;80.63;11.05;;;4.70;99.90;;;;;;5056629;28;20021;-70
2022/02/16 01:49:21;;;;;;;60.60;7.95;;;4.80;99.90;;;;;;5056997;28;20174;-70
2022/02/16 01:51:47;;;;;;;76.85;7.72;;;4.90;99.90;;;;;;5056268;28;20535;-70
2022/02/16 01:54:13;;;;;;;108.30;10.77;;;5.00;99.90;;;;;;5056481;28;20025;-70
2022/02/16 01:56:46;;;;;;;69.40;8.70;;;5.00;99.90;;;;;;5056396;28;20021;-70
2022/02/16 01:59:16;;;;;;;92.22;9.63;;;5.00;99.90;;;;;;5056704;28;20051;-70
2022/02/16 02:01:43;;;;;;;63.70;8.05;;;5.00;99.90;;;;;;5056159;28;20033;-70
2022/02/16 02:04:09;;;;;;;66.55;8.48;;;5.00;99.90;;;;;;5056589;28;20025;-70
2022/02/16 02:06:34;;;;;;;70.22;8.35;;;4.90;99.90;;;;;;5056770;28;20025;-70
2022/02/16 02:09:00;;;;;;;88.55;8.38;;;4.90;99.90;;;;;;5056415;28;20044;-70
2022/02/16 02:11:26;;;;;;;87.07;7.78;;;5.00;99.90;;;;;;5056319;28;20485;-70
2022/02/16 02:13:56;;;;;;;77.03;8.95;;;5.00;99.90;;;;;;5056048;28;20029;-70
2022/02/16 02:16:21;;;;;;;83.47;8.75;;;5.00;99.90;;;;;;5056099;28;20025;-70
2022/02/16 02:18:47;;;;;;;92.63;8.25;;;5.00;99.90;;;;;;5056650;28;20025;-70
2022/02/16 02:21:13;;;;;;;73.70;7.78;;;5.00;99.90;;;;;;5055707;28;20367;-70
2022/02/16 02:23:38;;;;;;;76.20;10.82;;;5.00;99.90;;;;;;5055984;28;20025;-70
2022/02/16 02:26:04;;;;;;;81.80;9.40;;;5.00;99.90;;;;;;5055189;28;20028;-70
2022/02/16 02:28:30;;;;;;;66.90;9.55;;;5.00;99.90;;;;;;5056092;28;20056;-70
2022/02/16 02:30:55;;;;;;;65.10;9.25;;;5.10;99.90;;;;;;5055719;28;20029;-70
2022/02/16 02:33:22;;;;;;;82.25;9.30;;;5.10;99.90;;;;;;5055724;28;20100;-70
2022/02/16 02:35:48;;;;;;;81.78;8.60;;;5.10;99.90;;;;;;5055735;28;20021;-70
2022/02/16 02:38:13;;;;;;;84.07;10.00;;;5.20;99.90;;;;;;5055747;28;20481;-70
2022/02/16 02:40:39;;;;;;;86.03;8.73;;;5.20;99.90;;;;;;5055430;28;20104;-70
2022/02/16 02:43:06;;;;;;;97.53;10.77;;;5.20;99.90;;;;;;5055806;28;20378;-70
2022/02/16 02:45:32;;;;;;;74.78;9.38;;;5.10;99.90;;;;;;5055815;28;20021;-70
2022/02/16 02:47:58;;;;;;;70.35;8.80;;;5.20;99.90;;;;;;5055383;28;20070;-70
2022/02/16 02:50:23;;;;;;;76.45;9.55;;;5.20;99.90;;;;;;5055796;28;20025;-70
2022/02/16 02:52:49;;;;;;;90.93;11.23;;;5.30;99.90;;;;;;5055300;28;20393;-70
2022/02/16 02:55:14;;;;;;;74.43;9.18;;;5.30;99.90;;;;;;5055859;28;20450;-70
2022/02/16 02:57:40;;;;;;;79.10;8.25;;;5.30;99.90;;;;;;5055270;28;20032;-70
2022/02/16 03:00:09;;;;;;;80.00;9.95;;;5.30;99.90;;;;;;5055211;28;20031;-70
2022/02/16 03:02:34;;;;;;;81.07;9.80;;;5.30;99.90;;;;;;5055055;28;20025;-70
2022/02/16 03:05:01;;;;;;;101.00;11.10;;;5.20;99.90;;;;;;5055469;28;20096;-70
2022/02/16 03:07:27;;;;;;;73.70;8.82;;;5.20;99.90;;;;;;5055274;28;20203;-71
2022/02/16 03:09:52;;;;;;;88.75;10.05;;;5.20;99.90;;;;;;5054976;28;20549;-71
2022/02/16 03:12:18;;;;;;;76.60;9.10;;;5.20;99.90;;;;;;5055004;28;20102;-71
2022/02/16 03:14:43;;;;;;;97.93;11.30;;;5.30;99.90;;;;;;5054963;28;20074;-71
2022/02/16 03:17:09;;;;;;;80.65;10.23;;;5.30;99.90;;;;;;5054834;28;20029;-71
2022/02/16 03:19:35;;;;;;;86.60;9.68;;;5.30;99.90;;;;;;5054809;28;20104;-71
2022/02/16 03:22:00;;;;;;;77.90;7.65;;;5.30;99.90;;;;;;5054699;28;20477;-71
2022/02/16 03:24:26;;;;;;;60.97;8.82;;;5.30;99.90;;;;;;5054667;28;20398;-71
2022/02/16 03:26:52;;;;;;;77.63;9.90;;;5.30;99.90;;;;;;5054940;28;20465;-71
2022/02/16 03:29:18;;;;;;;87.88;10.57;;;5.30;99.90;;;;;;5054931;28;20055;-71
2022/02/16 03:31:46;;;;;;;70.47;8.90;;;5.40;99.90;;;;;;5054786;28;20481;-71
2022/02/16 03:34:12;;;;;;;64.53;9.30;;;5.40;99.90;;;;;;5054538;28;20047;-71
2022/02/16 03:36:38;;;;;;;80.78;9.98;;;5.40;99.90;;;;;;5054463;28;20536;-71
2022/02/16 03:39:03;;;;;;;94.93;9.18;;;5.30;99.90;;;;;;5054516;28;20035;-71
2022/02/16 03:41:29;;;;;;;84.25;9.27;;;5.30;99.90;;;;;;5054617;28;20082;-71
2022/02/16 03:43:55;;;;;;;60.20;7.53;;;5.40;99.90;;;;;;5054649;28;20028;-71
2022/02/16 03:46:20;;;;;;;73.25;9.65;;;5.40;99.90;;;;;;5054381;28;20021;-71
2022/02/16 03:48:46;;;;;;;97.53;11.15;;;5.40;99.90;;;;;;5054309;28;20091;-71
2022/02/16 03:51:12;;;;;;;67.47;8.50;;;5.40;99.90;;;;;;5054031;28;20033;-71
2022/02/16 03:53:37;;;;;;;59.28;7.57;;;5.40;99.90;;;;;;5054229;28;20075;-71
2022/02/16 03:56:03;;;;;;;80.90;11.15;;;5.40;99.90;;;;;;5054688;28;20028;-71
2022/02/16 03:58:29;;;;;;;55.53;7.95;;;5.40;99.90;;;;;;5054040;28;20036;-71
2022/02/16 04:00:54;;;;;;;54.13;5.93;;;5.40;99.90;;;;;;5053912;28;20032;-71
2022/02/16 04:03:20;;;;;;;60.53;8.25;;;5.40;99.90;;;;;;5053992;28;20473;-71
2022/02/16 04:05:45;;;;;;;59.38;8.15;;;5.40;99.90;;;;;;5054036;28;20032;-71
2022/02/16 04:08:11;;;;;;;62.72;7.40;;;5.40;99.90;;;;;;5053897;28;20029;-71
2022/02/16 04:10:36;;;;;;;59.53;7.88;;;5.40;99.90;;;;;;5054205;28;20029;-71
2022/02/16 04:13:02;;;;;;;61.47;8.82;;;5.40;99.90;;;;;;5053718;28;20107;-71
2022/02/16 04:15:27;;;;;;;45.83;7.50;;;5.40;99.90;;;;;;5054129;28;20108;-71
2022/02/16 04:17:53;;;;;;;53.15;6.60;;;5.40;99.90;;;;;;5053860;28;20466;-71
2022/02/16 04:20:19;;;;;;;60.33;8.90;;;5.40;99.90;;;;;;5054296;28;20033;-71
2022/02/16 04:22:46;;;;;;;50.22;6.90;;;5.40;99.90;;;;;;5053570;28;20021;-71
2022/02/16 04:25:13;;;;;;;46.83;8.35;;;5.50;99.90;;;;;;5053810;28;20024;-71
2022/02/16 04:27:38;;;;;;;46.67;6.63;;;5.40;99.90;;;;;;5054024;28;20048;-71
2022/02/16 04:30:05;;;;;;;60.13;8.75;;;5.40;99.90;;;;;;5053482;28;20466;-71
2022/02/16 04:32:31;;;;;;;67.47;7.43;;;5.40;99.90;;;;;;5053502;28;20017;-71
2022/02/16 04:34:57;;;;;;;50.63;7.07;;;5.50;99.90;;;;;;5053630;28;20036;-71
2022/02/16 04:37:22;;;;;;;45.47;7.10;;;5.50;99.90;;;;;;5053725;28;20029;-71
2022/02/16 04:39:48;;;;;;;49.70;9.20;;;5.50;99.90;;;;;;5053488;28;20028;-71
2022/02/16 04:42:14;;;;;;;51.65;7.22;;;5.40;99.90;;;;;;5053593;28;20061;-70
2022/02/16 04:44:40;;;;;;;38.25;6.72;;;5.40;99.90;;;;;;5053830;28;20021;-70
2022/02/16 04:47:05;;;;;;;60.90;7.80;;;5.40;99.90;;;;;;5054172;28;20504;-70
2022/02/16 04:49:31;;;;;;;44.15;8.27;;;5.30;99.90;;;;;;5059937;28;20056;-70
2022/02/16 04:51:57;;;;;;;65.53;7.95;;;5.30;99.90;;;;;;5060016;28;20037;-70
2022/02/16 04:54:22;;;;;;;55.47;9.25;;;5.30;99.90;;;;;;5059998;28;20032;-70
2022/02/16 04:56:48;;;;;;;56.67;9.45;;;5.20;99.90;;;;;;5060103;28;20445;-70
2022/02/16 04:59:13;;;;;;;67.18;10.85;;;5.20;99.90;;;;;;5059969;28;20099;-70
2022/02/16 05:01:39;;;;;;;56.08;10.45;;;5.20;99.90;;;;;;5059964;28;20461;-70
2022/02/16 05:04:05;;;;;;;60.53;14.18;;;5.20;99.90;;;;;;5060226;28;20099;-70
2022/02/16 05:06:30;;;;;;;57.88;11.88;;;5.20;99.90;;;;;;5060212;28;20100;-70
2022/02/16 05:08:57;;;;;;;44.72;10.80;;;5.20;99.90;;;;;;5060289;28;20029;-70
2022/02/16 05:11:23;;;;;;;54.80;11.27;;;5.20;99.90;;;;;;5060302;28;20021;-70
2022/02/16 05:13:49;;;;;;;66.22;10.35;;;5.10;99.90;;;;;;5060768;28;20411;-70
2022/02/16 05:16:15;;;;;;;47.08;9.30;;;5.10;99.90;;;;;;5061048;28;20033;-70
2022/02/16 05:18:40;;;;;;;35.88;8.10;;;5.10;99.90;;;;;;5059836;28;20047;-70
2022/02/16 05:21:06;;;;;;;42.85;8.40;;;5.10;99.90;;;;;;5060167;28;20029;-70
2022/02/16 05:23:31;;;;;;;56.10;8.07;;;5.00;99.90;;;;;;5059813;28;20048;-70
2022/02/16 05:25:57;;;;;;;45.75;8.45;;;5.00;99.90;;;;;;5059799;28;20023;-70
2022/02/16 05:28:23;;;;;;;50.72;6.95;;;5.00;99.90;;;;;;5060000;28;20049;-70
2022/02/16 05:30:49;;;;;;;34.88;7.70;;;5.10;99.90;;;;;;5059756;28;20024;-70
2022/02/16 05:33:15;;;;;;;53.67;10.93;;;5.10;99.90;;;;;;5059776;28;20032;-71
2022/02/16 05:35:40;;;;;;;48.60;9.55;;;5.20;99.90;;;;;;5059775;28;20523;-71
2022/02/16 05:38:06;;;;;;;38.58;7.93;;;5.20;99.90;;;;;;5059711;28;20064;-71
2022/02/16 05:40:31;;;;;;;36.28;7.25;;;5.20;99.90;;;;;;5060003;28;20025;-72
2022/02/16 05:42:57;;;;;;;34.38;6.93;;;5.20;99.90;;;;;;5041564;28;20039;-70
2022/02/16 05:45:23;;;;;;;35.58;7.40;;;5.20;99.90;;;;;;5059768;28;20053;-70
2022/02/16 05:47:48;;;;;;;34.20;7.63;;;5.20;99.90;;;;;;5059637;28;20017;-70
2022/02/16 05:50:14;;;;;;;35.97;8.88;;;5.30;99.90;;;;;;5059669;28;20021;-71
2022/02/16 05:52:40;;;;;;;50.80;12.65;;;5.30;99.90;;;;;;5059481;28;20040;-71
2022/02/16 05:55:06;;;;;;;41.58;12.20;;;5.50;99.90;;;;;;5059800;28;20051;-71
2022/02/16 05:57:32;;;;;;;37.17;12.32;;;5.50;99.90;;;;;;5059517;28;20029;-71
2022/02/16 05:59:58;;;;;;;46.03;15.18;;;5.50;99.90;;;;;;5056027;28;20020;-71
2022/02/16 06:02:24;;;;;;;45.08;14.70;;;5.40;99.90;;;;;;5056313;28;20029;-71
2022/02/16 06:04:50;;;;;;;45.45;14.10;;;5.50;99.90;;;;;;5056455;28;20028;-71
2022/02/16 06:07:15;;;;;;;47.35;15.55;;;5.50;99.90;;;;;;5057113;28;20052;-71
2022/02/16 06:09:41;;;;;;;33.88;11.85;;;5.50;99.90;;;;;;5056830;28;20017;-71
2022/02/16 06:12:07;;;;;;;45.83;14.18;;;5.50;99.90;;;;;;5056100;28;20569;-72
2022/02/16 06:14:32;;;;;;;59.28;14.30;;;5.40;99.90;;;;;;5056459;28;20065;-72
2022/02/16 06:16:58;;;;;;;52.45;17.63;;;5.40;99.90;;;;;;5056064;28;20110;-72
2022/02/16 06:19:23;;;;;;;36.47;14.68;;;5.40;99.90;;;;;;5038243;28;20543;-72
2022/02/16 06:21:49;;;;;;;50.05;18.15;;;5.40;99.90;;;;;;5056054;28;20111;-72
2022/02/16 06:24:15;;;;;;;53.70;19.20;;;5.50;99.90;;;;;;5056259;28;20056;-72
2022/02/16 06:26:41;;;;;;;65.65;18.38;;;5.50;99.90;;;;;;5056045;28;20039;-72
2022/02/16 06:29:06;;;;;;;55.85;18.33;;;5.50;99.90;;;;;;5056360;28;20029;-72
2022/02/16 06:31:32;;;;;;;44.13;17.98;;;5.50;99.90;;;;;;5056405;28;20021;-72
2022/02/16 06:33:57;;;;;;;58.05;18.95;;;5.40;99.90;;;;;;5055879;28;20032;-72
2022/02/16 06:36:23;;;;;;;53.70;16.00;;;5.50;99.90;;;;;;5056128;28;20496;-72
2022/02/16 06:38:50;;;;;;;57.72;18.65;;;5.50;99.90;;;;;;5056201;28;20017;-72
2022/02/16 06:41:16;;;;;;;59.22;17.48;;;5.50;99.90;;;;;;5055934;28;20155;-72
2022/02/16 06:43:42;;;;;;;71.22;19.55;;;5.50;99.90;;;;;;5055626;28;20103;-72
2022/02/16 06:46:08;;;;;;;51.00;17.58;;;5.50;99.90;;;;;;5055949;28;20025;-72
2022/02/16 06:48:33;;;;;;;47.47;18.20;;;5.50;99.90;;;;;;5055612;28;20488;-72
2022/02/16 06:50:59;;;;;;;44.38;17.92;;;5.40;99.90;;;;;;5037673;28;20037;-72
2022/02/16 06:53:24;;;;;;;47.95;19.30;;;5.50;99.90;;;;;;5055361;28;20481;-71
2022/02/16 06:55:50;;;;;;;61.65;19.23;;;5.50;99.90;;;;;;5055667;28;20376;-71
2022/02/16 06:58:16;;;;;;;61.00;19.50;;;5.50;99.90;;;;;;5055213;28;20485;-71
2022/02/16 07:00:42;;;;;;;48.47;19.58;;;5.50;99.90;;;;;;5055163;28;20036;-71
2022/02/16 07:03:08;;;;;;;51.75;18.98;;;5.40;99.90;;;;;;5055422;28;20470;-71
2022/02/16 07:05:33;;;;;;;61.38;21.75;;;5.40;99.90;;;;;;5055395;28;20388;-71
2022/02/16 07:07:59;;;;;;;57.05;20.70;;;5.40;99.90;;;;;;5037319;28;20025;-71
2022/02/16 07:10:25;;;;;;;56.03;21.80;;;5.40;99.90;;;;;;5054684;28;20413;-71
2022/02/16 07:12:51;;;;;;;58.78;21.40;;;5.40;99.90;;;;;;5054891;28;20100;-71
2022/02/16 07:15:17;;;;;;;59.05;21.52;;;5.40;99.90;;;;;;5054930;28;20061;-71
2022/02/16 07:17:43;;;;;;;56.80;20.90;;;5.40;99.90;;;;;;5054824;28;20108;-71
2022/02/16 07:20:11;;;;;;;57.45;20.77;;;5.40;99.90;;;;;;5054877;28;20106;-71
2022/02/16 07:22:39;;;;;;;51.95;20.50;;;5.40;99.90;;;;;;5054611;28;20040;-71
2022/02/16 07:25:05;;;;;;;51.10;21.42;;;5.50;99.90;;;;;;5054778;28;20028;-71
2022/02/16 07:27:30;;;;;;;67.10;22.67;;;5.50;99.90;;;;;;5054722;28;20025;-71
2022/02/16 07:29:56;;;;;;;80.60;23.17;;;5.50;99.90;;;;;;5055204;28;20197;-71
2022/02/16 07:32:21;;;;;;;70.45;23.65;;;5.50;99.90;;;;;;5054697;28;20523;-71
2022/02/16 07:34:47;;;;;;;67.70;24.02;;;5.50;99.90;;;;;;5036691;28;20086;-71
2022/02/16 07:37:12;;;;;;;61.53;25.27;;;5.50;99.90;;;;;;5036642;28;20052;-71
2022/02/16 07:39:38;;;;;;;64.85;23.85;;;5.50;99.90;;;;;;5054449;28;20496;-71
2022/02/16 07:42:04;;;;;;;57.38;23.35;;;5.50;99.90;;;;;;5054647;28;20025;-71
2022/02/16 07:44:29;;;;;;;65.03;26.20;;;5.60;99.90;;;;;;5054707;28;20029;-71
2022/02/16 07:46:55;;;;;;;66.13;24.27;;;5.60;99.90;;;;;;5054286;28;20434;-71
2022/02/16 07:49:21;;;;;;;89.95;28.00;;;5.50;99.90;;;;;;5054303;28;20532;-71
2022/02/16 07:51:46;;;;;;;72.78;25.90;;;5.50;99.90;;;;;;5053796;28;20043;-71
2022/02/16 07:54:12;;;;;;;63.40;27.10;;;5.60;99.90;;;;;;5054198;28;20394;-71
2022/02/16 07:56:38;;;;;;;60.38;25.33;;;5.60;99.90;;;;;;5054184;28;20032;-71
2022/02/16 07:59:04;;;;;;;72.45;26.77;;;5.60;99.90;;;;;;5054177;28;20553;-71
2022/02/16 08:01:29;;;;;;;63.95;26.98;;;5.60;99.90;;;;;;5053927;28;20115;-71
2022/02/16 08:04:15;;;;;;;65.85;27.80;;;5.70;99.90;;;;;;5054283;28;20025;-71
2022/02/16 08:06:40;;;;;;;65.35;27.20;;;5.70;99.90;;;;;;5053762;28;20025;-71
2022/02/16 08:09:10;;;;;;;78.07;26.85;;;5.70;99.90;;;;;;5054124;28;20035;-71
2022/02/16 08:11:36;;;;;;;59.20;27.67;;;5.70;99.90;;;;;;5053820;28;20094;-71
2022/02/16 08:14:02;;;;;;;66.03;26.25;;;5.70;99.90;;;;;;5054085;28;20017;-71
2022/02/16 08:16:28;;;;;;;70.72;26.13;;;5.70;99.90;;;;;;5053883;28;20044;-71
2022/02/16 08:18:53;;;;;;;58.65;27.70;;;5.80;99.90;;;;;;5053691;28;20474;-71
2022/02/16 08:21:19;;;;;;;59.25;27.98;;;5.80;99.90;;;;;;5053556;28;20037;-71
2022/02/16 08:23:45;;;;;;;64.75;27.58;;;5.80;99.90;;;;;;5053024;28;20100;-71
2022/02/16 08:26:10;;;;;;;63.08;27.60;;;5.80;99.90;;;;;;5053831;28;20074;-71
2022/02/16 08:28:37;;;;;;;59.95;27.55;;;5.80;99.90;;;;;;5053738;28;20021;-71
2022/02/16 08:31:03;;;;;;;60.25;27.08;;;5.80;99.90;;;;;;5035866;28;20139;-71
2022/02/16 08:33:29;;;;;;;54.70;26.67;;;5.80;99.90;;;;;;5053832;28;20465;-71
2022/02/16 08:35:54;;;;;;;56.13;29.35;;;5.90;99.90;;;;;;5053546;28;20036;-71
2022/02/16 08:38:20;;;;;;;51.90;25.27;;;5.90;99.90;;;;;;5053881;28;20021;-71
2022/02/16 08:40:46;;;;;;;58.17;26.73;;;5.90;99.90;;;;;;5053607;28;20146;-71
2022/02/16 08:43:11;;;;;;;64.07;25.52;;;5.90;99.90;;;;;;5053457;28;20051;-72
2022/02/16 08:45:37;;;;;;;43.72;24.42;;;5.90;99.90;;;;;;5053376;28;20029;-72
2022/02/16 08:48:02;;;;;;;51.22;24.75;;;6.00;99.90;;;;;;5053626;28;20049;-72
2022/02/16 08:50:28;;;;;;;41.42;22.70;;;6.10;99.90;;;;;;5053270;28;20466;-72
2022/02/16 08:52:54;;;;;;;41.63;22.33;;;6.10;99.90;;;;;;5053326;28;20128;-72
2022/02/16 08:55:19;;;;;;;38.88;22.02;;;6.20;99.90;;;;;;5054246;28;20044;-74
2022/02/16 08:57:45;;;;;;;42.85;23.77;;;6.20;99.90;;;;;;5053634;28;20057;-74
2022/02/16 09:00:11;;;;;;;40.38;21.63;;;6.30;99.90;;;;;;5053860;28;20029;-74
2022/02/16 09:02:37;;;;;;;40.78;22.70;;;6.30;99.90;;;;;;5035696;28;20535;-74
2022/02/16 09:05:04;;;;;;;40.97;23.20;;;6.40;99.90;;;;;;5053740;28;20078;-74
2022/02/16 09:07:30;;;;;;;37.88;18.92;;;6.50;99.90;;;;;;5053865;28;20037;-76
2022/02/16 09:10:01;;;;;;;41.35;19.13;;;6.50;99.90;;;;;;5053453;28;20393;-73
2022/02/16 09:12:27;;;;;;;38.47;18.50;;;6.50;99.90;;;;;;5053246;28;20063;-72
2022/02/16 09:14:53;;;;;;;31.88;18.52;;;6.50;99.90;;;;;;5035513;28;20025;-72
2022/02/16 09:17:19;;;;;;;33.22;16.63;;;6.60;99.90;;;;;;5036133;28;20025;-72
2022/02/16 09:19:45;;;;;;;28.50;14.63;;;6.70;99.90;;;;;;5053591;28;20021;-73
2022/02/16 09:22:13;;;;;;;25.38;13.75;;;6.70;99.90;;;;;;5053458;28;20440;-72
2022/02/16 09:24:39;;;;;;;23.67;14.68;;;6.70;99.90;;;;;;5053725;28;20105;-72
2022/02/16 09:27:05;;;;;;;30.63;14.43;;;6.80;99.90;;;;;;5053590;28;20454;-72
2022/02/16 09:29:30;;;;;;;23.45;13.38;;;6.80;99.90;;;;;;5053507;28;20029;-72
2022/02/16 09:31:56;;;;;;;25.23;12.63;;;6.80;99.90;;;;;;5053329;28;20033;-71
2022/02/16 09:34:22;;;;;;;21.45;11.95;;;6.80;99.90;;;;;;5055141;28;20450;-72
2022/02/16 09:36:48;;;;;;;19.20;11.20;;;6.90;99.90;;;;;;5057467;28;20108;-72
2022/02/16 09:39:14;;;;;;;18.63;10.63;;;6.90;99.90;;;;;;5057405;28;20524;-72
2022/02/16 09:41:44;;;;;;;17.77;10.82;;;7.00;99.90;;;;;;5056707;28;20033;-71
2022/02/16 09:44:13;;;;;;;14.77;8.75;;;7.10;99.90;;;;;;5056795;28;20067;-72
2022/02/16 09:46:39;;;;;;;11.30;6.47;;;7.10;99.90;;;;;;5038957;28;20107;-72
2022/02/16 09:49:04;;;;;;;13.48;6.43;;;7.20;99.90;;;;;;5056927;28;20108;-72
2022/02/16 09:51:30;;;;;;;12.77;6.75;;;7.20;99.90;;;;;;5056672;28;20041;-72
2022/02/16 09:53:56;;;;;;;12.70;7.05;;;7.30;99.90;;;;;;5057143;28;20029;-72
2022/02/16 09:56:21;;;;;;;12.13;6.95;;;7.30;99.90;;;;;;5056695;28;20035;-72
2022/02/16 09:58:47;;;;;;;13.15;8.10;;;7.40;99.90;;;;;;5056485;28;20075;-71
2022/02/16 10:01:16;;;;;;;15.77;8.68;;;7.40;99.90;;;;;;5056627;28;20035;-72
2022/02/16 10:04:02;;;;;;;11.40;8.00;;;7.50;99.90;;;;;;5056727;28;20104;-72
2022/02/16 10:06:44;;;;;;;11.73;6.80;;;7.60;99.90;;;;;;5038568;28;20079;-72
2022/02/16 10:09:26;;;;;;;9.02;6.15;;;7.60;99.90;;;;;;5038545;28;20021;-72
2022/02/16 10:11:58;;;;;;;11.82;6.15;;;7.70;99.90;;;;;;5056633;28;20390;-73
2022/02/16 10:14:30;;;;;;;13.07;6.45;;;7.70;99.90;;;;;;5056561;28;20017;-74
2022/02/16 10:16:59;;;;;;;15.95;6.75;;;7.80;99.90;;;;;;5056468;28;20028;-72
2022/02/16 10:19:25;;;;;;;12.15;5.70;;;7.80;99.90;;;;;;5056212;28;20025;-73
2022/02/16 10:22:00;;;;;;;8.35;5.28;;;7.80;99.90;;;;;;5056036;28;20388;-73
2022/02/16 10:24:26;;;;;;;8.95;5.03;;;7.80;99.90;;;;;;5056314;28;20028;-73
2022/02/16 10:26:54;;;;;;;9.65;3.85;;;7.80;99.90;;;;;;5056041;28;20021;-73
2022/02/16 10:29:21;;;;;;;7.82;3.60;;;7.90;99.90;;;;;;5056102;28;20017;-73
2022/02/16 10:31:47;;;;;;;7.28;4.10;;;7.90;99.90;;;;;;5055978;28;20037;-73
2022/02/16 10:34:13;;;;;;;7.43;4.40;;;8.00;99.90;;;;;;5055782;28;20054;-74
2022/02/16 10:36:38;;;;;;;12.07;4.25;;;7.90;99.90;;;;;;5055866;28;20039;-73
2022/02/16 10:39:12;;;;;;;9.88;4.13;;;8.00;99.90;;;;;;5056291;28;20534;-73
2022/02/16 10:41:44;;;;;;;6.82;4.05;;;8.00;99.90;;;;;;5056175;28;20466;-72
2022/02/16 10:44:33;;;;;;;11.98;5.40;;;8.00;99.90;;;;;;5056106;28;20063;-72
2022/02/16 10:47:10;;;;;;;6.85;3.75;;;8.00;99.90;;;;;;5055377;28;20017;-72
2022/02/16 10:49:46;;;;;;;6.18;2.97;;;8.10;99.90;;;;;;5056361;28;20021;-72
2022/02/16 10:52:20;;;;;;;12.60;3.25;;;8.10;99.90;;;;;;5037964;28;20427;-72
2022/02/16 10:54:59;;;;;;;6.63;1.73;;;8.00;99.90;;;;;;5055741;28;20033;-72
2022/02/16 10:57:28;;;;;;;11.60;2.47;;;8.10;99.90;;;;;;5055939;28;20099;-72
2022/02/16 10:59:54;;;;;;;8.65;2.30;;;8.10;99.90;;;;;;5055624;28;20036;-72
2022/02/16 11:02:23;;;;;;;7.72;2.00;;;8.10;99.90;;;;;;5055156;28;20029;-72
2022/02/16 11:04:51;;;;;;;11.82;1.90;;;8.00;99.90;;;;;;5055346;28;20427;-72
2022/02/16 11:07:23;;;;;;;15.38;3.17;;;8.00;99.90;;;;;;5055350;28;20024;-72
2022/02/16 11:09:51;;;;;;;17.83;3.28;;;8.00;99.90;;;;;;5055139;28;20073;-71
2022/02/16 11:12:17;;;;;;;30.73;4.53;;;7.90;99.90;;;;;;5054977;28;20139;-71
2022/02/16 11:14:43;;;;;;;38.67;5.90;;;7.90;99.90;;;;;;5055563;28;20069;-71
2022/02/16 11:17:10;;;;;;;60.45;7.97;;;7.90;99.90;;;;;;5054946;28;20029;-71
2022/02/16 11:19:36;;;;;;;63.55;7.07;;;7.90;99.90;;;;;;5055015;28;20021;-72
2022/02/16 11:22:18;;;;;;;79.75;11.32;;;7.90;99.90;;;;;;5054739;28;20039;-72
2022/02/16 11:24:49;;;;;;;57.83;9.55;;;8.00;99.90;;;;;;5036836;28;20031;-72
2022/02/16 11:27:29;;;;;;;108.28;12.43;;;8.20;99.90;;;;;;5054905;28;20021;-72
2022/02/16 11:30:00;;;;;;;99.05;10.77;;;8.40;99.90;;;;;;5054974;28;20543;-72
2022/02/16 11:32:30;;;;;;;74.13;11.68;;;8.40;99.90;;;;;;5054566;28;20047;-72
2022/02/16 11:35:26;;;;;;;72.05;10.77;;;8.60;99.90;;;;;;5036858;28;20028;-71
2022/02/16 11:38:12;;;;;;;96.20;12.15;;;8.60;99.90;;;;;;5055042;28;20108;-72
2022/02/16 11:40:51;;;;;;;81.90;11.13;;;8.70;99.90;;;;;;5054740;28;20094;-72
2022/02/16 11:43:22;;;;;;;93.97;11.95;;;8.70;99.90;;;;;;5054604;28;20025;-71
2022/02/16 11:45:51;;;;;;;99.80;13.13;;;8.70;99.90;;;;;;5054413;28;20048;-71
2022/02/16 11:48:38;;;;;;;90.32;12.25;;;8.80;99.90;;;;;;5054268;28;20504;-71
2022/02/16 11:51:26;;;;;;;72.15;10.77;;;9.00;99.90;;;;;;5054066;28;20032;-71
2022/02/16 11:53:52;;;;;;;101.40;13.98;;;9.00;99.90;;;;;;5054067;28;20049;-71
2022/02/16 11:56:22;;;;;;;94.35;11.48;;;9.00;99.90;;;;;;5054078;28;20024;-71
2022/02/16 11:59:15;;;;;;;90.25;11.73;;;9.00;99.90;;;;;;5053348;28;20021;-71
2022/02/16 12:02:09;;;;;;;94.50;11.93;;;9.10;99.90;;;;;;5053952;28;20095;-71
2022/02/16 12:04:48;;;;;;;75.35;10.38;;;9.20;99.90;;;;;;5054329;28;20021;-71
2022/02/16 12:07:28;;;;;;;68.20;10.57;;;9.20;99.90;;;;;;5054319;28;20021;-71
2022/02/16 12:10:20;;;;;;;75.35;13.32;;;9.20;99.90;;;;;;5054219;28;20096;-71
2022/02/16 12:12:48;;;;;;;73.85;11.10;;;9.30;99.90;;;;;;5054865;28;20025;-71
2022/02/16 12:15:17;;;;;;;71.68;10.25;;;9.20;99.90;;;;;;5054058;28;20082;-70
2022/02/16 12:17:43;;;;;;;76.28;8.77;;;9.20;99.90;;;;;;5053895;28;20127;-70
2022/02/16 12:20:09;;;;;;;69.40;11.90;;;9.20;99.90;;;;;;5053831;28;20025;-71
2022/02/16 12:22:36;;;;;;;94.68;13.90;;;9.10;99.90;;;;;;5053582;28;20473;-70
2022/02/16 12:25:16;;;;;;;85.75;11.90;;;9.10;99.90;;;;;;5054021;28;20381;-70
2022/02/16 12:27:43;;;;;;;91.50;9.73;;;9.10;99.90;;;;;;5054390;28;20028;-70
2022/02/16 12:30:10;;;;;;;68.00;10.05;;;9.20;99.90;;;;;;5054031;28;20033;-70
2022/02/16 12:32:35;;;;;;;86.65;10.93;;;9.20;99.90;;;;;;5053566;28;20025;-70
2022/02/16 12:35:03;;;;;;;84.47;9.55;;;9.30;99.90;;;;;;5053538;28;20060;-70
2022/02/16 12:37:29;;;;;;;64.55;7.40;;;9.20;99.90;;;;;;5053661;28;20021;-70
2022/02/16 12:39:58;;;;;;;79.78;10.65;;;9.20;99.90;;;;;;5053583;28;20078;-71
2022/02/16 12:42:31;;;;;;;67.00;10.18;;;9.20;99.90;;;;;;5053883;28;20029;-70
2022/02/16 12:44:58;;;;;;;83.53;11.73;;;9.20;99.90;;;;;;5053687;28;20021;-71